createdAt,value
2023-05-12T00:00:52.802Z,16.50
2023-05-12T00:03:20.986Z,16.40
2023-05-12T00:05:49.396Z,16.20
2023-05-12T00:08:17.430Z,16.30
2023-05-12T00:10:45.469Z,16.20
2023-05-12T00:13:15.088Z,16.20
2023-05-12T00:15:43.250Z,16.40
2023-05-12T00:18:11.308Z,16.40
2023-05-12T00:20:39.661Z,16.50
2023-05-12T00:23:07.696Z,16.70
2023-05-12T00:25:35.764Z,17.00
2023-05-12T00:28:03.800Z,17.10
2023-05-12T00:30:33.208Z,17.20
2023-05-12T00:33:01.276Z,17.30
2023-05-12T00:35:29.678Z,17.20
2023-05-12T00:37:57.759Z,17.30
2023-05-12T00:40:25.847Z,16.80
2023-05-12T00:42:53.948Z,17.00
2023-05-12T00:45:22.296Z,17.10
2023-05-12T00:47:51.987Z,16.40
2023-05-12T00:50:20.324Z,16.20
2023-05-12T00:52:49.199Z,16.50
2023-05-12T00:55:17.289Z,16.60
2023-05-12T00:57:45.416Z,16.70
2023-05-12T01:00:14.515Z,16.90
2023-05-12T01:02:42.750Z,17.20
2023-05-12T01:05:12.683Z,17.20
2023-05-12T01:07:40.758Z,16.80
2023-05-12T01:10:18.998Z,16.80
2023-05-12T01:12:47.357Z,16.60
2023-05-12T01:15:15.418Z,16.60
2023-05-12T01:17:45.660Z,16.20
2023-05-12T01:20:16.044Z,15.80
2023-05-12T01:22:44.052Z,15.70
2023-05-12T01:25:12.862Z,16.20
2023-05-12T01:27:42.261Z,16.40
2023-05-12T01:30:11.173Z,16.70
2023-05-12T01:32:40.397Z,16.60
2023-05-12T01:35:09.116Z,16.90
2023-05-12T01:37:37.265Z,16.70
2023-05-12T01:40:06.232Z,16.30
2023-05-12T01:42:34.264Z,16.30
2023-05-12T01:45:03.777Z,15.90
2023-05-12T01:47:31.962Z,15.90
2023-05-12T01:50:00.086Z,15.80
2023-05-12T01:52:28.947Z,15.80
2023-05-12T01:54:56.985Z,16.00
2023-05-12T01:57:25.104Z,16.10
2023-05-12T01:59:53.127Z,16.50
2023-05-12T02:02:22.552Z,16.70
2023-05-12T02:04:50.697Z,16.50
2023-05-12T02:07:18.799Z,16.30
2023-05-12T02:09:47.201Z,16.50
2023-05-12T02:12:15.246Z,15.90
2023-05-12T02:14:43.248Z,16.20
2023-05-12T02:17:11.358Z,16.80
2023-05-12T02:19:41.346Z,17.00
2023-05-12T02:22:09.384Z,17.20
2023-05-12T02:24:37.443Z,16.30
2023-05-12T02:27:05.732Z,15.90
2023-05-12T02:29:33.762Z,15.90
2023-05-12T02:32:01.927Z,16.40
2023-05-12T02:34:30.025Z,16.10
2023-05-12T02:36:59.443Z,16.20
2023-05-12T02:39:27.507Z,16.40
2023-05-12T02:41:55.588Z,15.90
2023-05-12T02:44:23.645Z,15.60
2023-05-12T02:46:51.656Z,15.70
2023-05-12T02:49:19.718Z,15.90
2023-05-12T02:51:48.586Z,15.80
2023-05-12T02:54:18.119Z,15.70
2023-05-12T02:56:46.103Z,15.90
2023-05-12T02:59:14.236Z,16.10
2023-05-12T03:01:42.277Z,16.00
2023-05-12T03:04:10.340Z,16.20
2023-05-12T03:06:38.409Z,16.70
2023-05-12T03:09:06.652Z,16.70
2023-05-12T03:11:36.144Z,16.70
2023-05-12T03:14:26.755Z,16.40
2023-05-12T03:16:54.961Z,15.70
2023-05-12T03:19:23.055Z,15.70
2023-05-12T03:21:51.093Z,15.60
2023-05-12T03:24:19.148Z,15.20
2023-05-12T03:26:48.902Z,14.90
2023-05-12T03:29:16.916Z,14.20
2023-05-12T03:31:44.984Z,14.20
2023-05-12T03:34:13.017Z,14.50
2023-05-12T03:36:41.118Z,14.80
2023-05-12T03:39:09.648Z,14.60
2023-05-12T03:41:38.231Z,14.40
2023-05-12T03:44:08.652Z,14.30
2023-05-12T03:46:36.915Z,14.50
2023-05-12T03:49:05.072Z,14.70
2023-05-12T03:51:33.124Z,14.80
2023-05-12T03:54:01.270Z,14.80
2023-05-12T03:56:29.636Z,14.80
2023-05-12T03:58:58.362Z,14.70
2023-05-12T04:01:27.832Z,15.00
2023-05-12T04:03:56.384Z,15.00
2023-05-12T04:06:24.592Z,15.20
2023-05-12T04:08:52.664Z,15.20
2023-05-12T04:11:20.680Z,15.30
2023-05-12T04:13:51.057Z,15.60
2023-05-12T04:16:19.110Z,15.20
2023-05-12T04:18:49.423Z,15.50
2023-05-12T04:21:17.521Z,15.10
2023-05-12T04:23:45.605Z,15.20
2023-05-12T04:26:13.658Z,15.30
2023-05-12T04:28:41.802Z,15.20
2023-05-12T04:31:09.836Z,15.10
2023-05-12T04:33:37.868Z,15.30
2023-05-12T04:36:07.993Z,15.70
2023-05-12T04:38:36.373Z,15.60
2023-05-12T04:41:04.611Z,15.60
2023-05-12T04:46:03.856Z,15.80
2023-05-12T04:48:31.940Z,15.60
2023-05-12T04:51:00.917Z,15.60
2023-05-12T04:53:34.712Z,15.80
2023-05-12T04:56:03.016Z,15.50
2023-05-12T04:58:31.100Z,15.70
2023-05-12T05:00:59.201Z,15.80
2023-05-12T05:03:27.355Z,16.10
2023-05-12T05:05:55.790Z,16.20
2023-05-12T05:08:24.006Z,16.20
2023-05-12T05:10:53.539Z,16.20
2023-05-12T05:13:21.754Z,16.30
2023-05-12T05:15:53.114Z,16.10
2023-05-12T05:18:23.991Z,16.20
2023-05-12T05:23:24.181Z,16.30
2023-05-12T05:25:53.658Z,16.50
2023-05-12T05:28:21.748Z,16.20
2023-05-12T05:30:49.824Z,16.30
2023-05-12T05:33:18.041Z,16.20
2023-05-12T05:35:46.719Z,16.50
2023-05-12T05:38:15.360Z,16.30
2023-05-12T05:40:53.131Z,16.70
2023-05-12T05:43:24.298Z,16.20
2023-05-12T05:45:52.457Z,16.50
2023-05-12T05:48:20.976Z,16.40
2023-05-12T05:50:49.501Z,16.30
2023-05-12T05:53:18.596Z,16.50
2023-05-12T05:55:46.833Z,16.60
2023-05-12T05:58:15.497Z,16.60
2023-05-12T06:00:45.368Z,16.70
2023-05-12T06:03:13.607Z,16.80
2023-05-12T06:05:43.482Z,16.70
2023-05-12T06:08:13.699Z,16.80
2023-05-12T06:10:42.249Z,16.80
2023-05-12T06:13:10.797Z,16.70
2023-05-12T06:15:39.035Z,16.90
2023-05-12T06:18:08.817Z,16.80
2023-05-12T06:20:37.111Z,16.80
2023-05-12T06:23:05.884Z,16.70
2023-05-12T06:25:34.644Z,16.60
2023-05-12T06:28:02.790Z,16.70
2023-05-12T06:30:31.332Z,16.80
2023-05-12T06:32:59.658Z,16.70
2023-05-12T06:35:29.377Z,16.60
2023-05-12T06:37:58.264Z,16.90
2023-05-12T06:40:26.672Z,17.00
2023-05-12T06:42:55.521Z,16.60
2023-05-12T06:45:24.561Z,16.70
2023-05-12T06:47:52.830Z,16.80
2023-05-12T06:50:21.064Z,17.00
2023-05-12T06:52:50.657Z,17.00
2023-05-12T06:55:20.842Z,17.00
2023-05-12T06:57:51.641Z,17.00
2023-05-12T07:00:20.634Z,16.90
2023-05-12T07:02:48.957Z,17.10
2023-05-12T07:05:18.951Z,17.00
2023-05-12T07:07:47.313Z,17.00
2023-05-12T07:10:16.841Z,17.10
2023-05-12T07:12:44.911Z,17.20
2023-05-12T07:15:13.431Z,17.10
2023-05-12T07:17:41.863Z,17.10
2023-05-12T07:20:11.002Z,17.10
2023-05-12T07:22:39.207Z,17.30
2023-05-12T07:25:08.829Z,17.50
2023-05-12T07:27:38.598Z,17.50
2023-05-12T07:30:07.800Z,17.60
2023-05-12T07:32:36.531Z,17.30
2023-05-12T07:35:05.110Z,17.70
2023-05-12T07:37:33.397Z,17.70
2023-05-12T07:40:01.700Z,17.60
2023-05-12T07:42:30.059Z,17.60
2023-05-12T07:44:59.730Z,17.30
2023-05-12T07:47:28.915Z,17.70
2023-05-12T07:49:57.240Z,17.80
2023-05-12T07:52:25.417Z,17.70
2023-05-12T07:54:53.502Z,17.60
2023-05-12T07:57:21.761Z,17.50
2023-05-12T07:59:50.014Z,17.70
2023-05-12T08:02:20.785Z,17.40
2023-05-12T08:04:49.111Z,17.60
2023-05-12T08:07:17.408Z,17.40
2023-05-12T08:09:45.608Z,17.10
2023-05-12T08:12:13.814Z,17.20
2023-05-12T08:14:42.306Z,17.10
2023-05-12T08:17:10.822Z,17.20
2023-05-12T08:19:41.934Z,17.30
2023-05-12T08:22:10.335Z,17.30
2023-05-12T08:24:38.611Z,17.10
2023-05-12T08:27:07.101Z,17.00
2023-05-12T08:29:35.622Z,16.90
2023-05-12T08:32:04.114Z,17.30
2023-05-12T08:34:35.008Z,17.20
2023-05-12T08:37:04.711Z,17.30
2023-05-12T08:39:33.947Z,17.50
2023-05-12T08:42:09.490Z,17.70
2023-05-12T08:44:38.361Z,17.60
2023-05-12T08:47:07.418Z,18.00
2023-05-12T08:49:36.960Z,17.90
2023-05-12T08:52:10.175Z,17.80
2023-05-12T08:54:48.522Z,18.10
2023-05-12T08:57:23.356Z,18.30
2023-05-12T08:59:51.724Z,18.50
2023-05-12T09:02:20.010Z,18.70
2023-05-12T09:04:48.582Z,18.20
2023-05-12T09:07:19.114Z,18.70
2023-05-12T09:09:48.933Z,18.60
2023-05-12T09:12:18.134Z,18.70
2023-05-12T09:14:46.828Z,18.80
2023-05-12T09:17:15.324Z,19.10
2023-05-12T09:19:43.605Z,18.50
2023-05-12T09:22:14.952Z,18.70
2023-05-12T09:24:44.527Z,18.80
2023-05-12T09:27:12.645Z,18.80
2023-05-12T09:29:59.380Z,18.70
2023-05-12T09:32:35.089Z,18.80
2023-05-12T09:35:05.342Z,18.90
2023-05-12T09:37:33.872Z,18.80
2023-05-12T09:40:04.792Z,18.30
2023-05-12T09:42:34.028Z,18.30
2023-05-12T09:45:03.996Z,18.40
2023-05-12T09:47:35.950Z,18.30
2023-05-12T09:50:04.272Z,18.20
2023-05-12T09:52:33.073Z,18.20
2023-05-12T09:55:11.232Z,18.30
2023-05-12T09:57:41.162Z,18.10
2023-05-12T10:00:21.127Z,18.00
2023-05-12T10:02:58.278Z,18.00
2023-05-12T10:05:26.772Z,18.10
2023-05-12T10:07:55.904Z,18.20
2023-05-12T10:10:26.062Z,18.30
2023-05-12T10:12:54.500Z,18.20
2023-05-12T10:15:22.913Z,18.30
2023-05-12T10:17:53.713Z,18.60
2023-05-12T10:20:22.412Z,18.40
2023-05-12T10:22:50.991Z,18.50
2023-05-12T10:25:19.564Z,18.70
2023-05-12T10:27:49.544Z,18.60
2023-05-12T10:30:20.623Z,18.40
2023-05-12T10:32:48.968Z,18.80
2023-05-12T10:35:17.780Z,18.80
2023-05-12T10:37:48.239Z,18.80
2023-05-12T10:40:25.118Z,18.60
2023-05-12T10:42:56.667Z,19.00
2023-05-12T10:45:25.056Z,18.70
2023-05-12T10:47:53.367Z,18.70
2023-05-12T10:50:28.387Z,19.10
2023-05-12T10:52:56.765Z,18.50
2023-05-12T10:55:32.393Z,18.60
2023-05-12T10:58:08.713Z,18.80
2023-05-12T11:00:45.842Z,19.00
2023-05-12T11:03:17.493Z,19.20
2023-05-12T11:05:47.352Z,19.30
2023-05-12T11:08:18.032Z,19.30
2023-05-12T11:10:47.825Z,19.30
2023-05-12T11:13:19.239Z,19.50
2023-05-12T11:15:47.512Z,19.50
2023-05-12T11:18:21.037Z,19.70
2023-05-12T11:20:49.260Z,19.30
2023-05-12T11:23:29.094Z,19.50
2023-05-12T11:25:57.512Z,19.50
2023-05-12T11:28:27.553Z,19.40
2023-05-12T11:30:56.285Z,19.60
2023-05-12T11:33:25.591Z,19.70
2023-05-12T11:35:54.281Z,19.50
2023-05-12T11:38:24.600Z,19.10
2023-05-12T11:40:53.625Z,19.50
2023-05-12T11:43:22.950Z,19.40
2023-05-12T11:45:52.908Z,19.70
2023-05-12T11:48:21.883Z,19.80
2023-05-12T11:50:51.546Z,19.60
2023-05-12T11:53:20.428Z,19.70
2023-05-12T11:55:54.730Z,19.30
2023-05-12T11:58:24.565Z,19.60
2023-05-12T12:00:55.457Z,19.80
2023-05-12T12:03:24.082Z,19.90
2023-05-12T12:06:03.250Z,19.70
2023-05-12T12:08:33.290Z,19.70
2023-05-12T12:11:03.692Z,19.80
2023-05-12T12:13:32.313Z,19.80
2023-05-12T12:16:03.294Z,19.70
2023-05-12T12:18:32.220Z,19.50
2023-05-12T12:21:00.831Z,19.30
2023-05-12T12:23:37.683Z,18.80
2023-05-12T12:26:12.420Z,19.00
2023-05-12T12:28:43.021Z,18.80
2023-05-12T12:31:13.275Z,18.80
2023-05-12T12:33:41.782Z,19.30
2023-05-12T12:36:14.920Z,19.00
2023-05-12T12:38:43.351Z,19.30
2023-05-12T12:41:13.215Z,19.60
2023-05-12T12:43:43.353Z,19.50
2023-05-12T12:46:13.213Z,19.50
2023-05-12T12:48:42.497Z,19.60
2023-05-12T12:51:10.667Z,19.80
2023-05-12T12:53:38.892Z,19.70
2023-05-12T12:56:07.671Z,19.80
2023-05-12T12:58:35.928Z,19.70
2023-05-12T13:01:04.157Z,19.50
2023-05-12T13:03:33.770Z,19.10
2023-05-12T13:06:04.856Z,18.90
2023-05-12T13:08:41.448Z,19.50
2023-05-12T13:11:09.853Z,19.30
2023-05-12T13:13:38.101Z,19.50
2023-05-12T13:16:06.757Z,19.40
2023-05-12T13:18:36.252Z,19.30
2023-05-12T13:21:04.858Z,19.60
2023-05-12T13:23:33.025Z,19.40
2023-05-12T13:26:01.199Z,19.20
2023-05-12T13:28:29.300Z,19.80
2023-05-12T13:30:57.590Z,19.60
2023-05-12T13:33:25.785Z,19.60
2023-05-12T13:35:55.587Z,19.30
2023-05-12T13:38:23.692Z,19.60
2023-05-12T13:40:52.195Z,19.60
2023-05-12T13:43:21.487Z,19.20
2023-05-12T13:45:49.681Z,19.80
2023-05-12T13:48:18.069Z,19.50
2023-05-12T13:50:46.231Z,20.00
2023-05-12T13:53:15.705Z,20.00
2023-05-12T13:55:44.622Z,19.80
2023-05-12T13:58:12.878Z,19.80
2023-05-12T14:00:41.280Z,19.40
2023-05-12T14:03:10.156Z,19.60
2023-05-12T14:05:38.393Z,19.30
2023-05-12T14:08:06.625Z,19.30
2023-05-12T14:10:36.266Z,19.20
2023-05-12T14:13:04.763Z,19.20
2023-05-12T14:15:44.763Z,19.30
2023-05-12T14:18:16.618Z,19.50
2023-05-12T14:20:45.260Z,19.50
2023-05-12T14:23:13.634Z,19.30
2023-05-12T14:25:43.098Z,19.30
2023-05-12T14:28:11.283Z,19.50
2023-05-12T14:30:39.615Z,19.10
2023-05-12T14:33:08.065Z,19.10
2023-05-12T14:35:36.290Z,19.60
2023-05-12T14:38:04.657Z,19.60
2023-05-12T14:40:33.044Z,19.50
2023-05-12T14:43:03.499Z,19.50
2023-05-12T14:45:32.181Z,20.00
2023-05-12T14:48:00.456Z,19.90
2023-05-12T14:50:29.227Z,19.80
2023-05-12T14:52:57.746Z,19.50
2023-05-12T14:55:26.273Z,19.40
2023-05-12T14:57:54.449Z,19.50
2023-05-12T15:00:24.559Z,20.30
2023-05-12T15:02:52.756Z,19.80
2023-05-12T15:05:22.987Z,19.50
2023-05-12T15:07:55.593Z,19.70
2023-05-12T15:10:23.736Z,19.50
2023-05-12T15:12:51.871Z,19.30
2023-05-12T15:15:20.537Z,19.80
2023-05-12T15:17:50.218Z,20.30
2023-05-12T15:20:18.655Z,20.20
2023-05-12T15:22:46.725Z,20.00
2023-05-12T15:25:14.998Z,20.40
2023-05-12T15:27:43.030Z,20.10
2023-05-12T15:30:12.953Z,20.00
2023-05-12T15:32:41.516Z,19.80
2023-05-12T15:35:14.395Z,20.00
2023-05-12T15:37:42.502Z,20.70
2023-05-12T15:40:14.545Z,20.60
2023-05-12T15:42:43.059Z,20.70
2023-05-12T15:45:11.973Z,20.40
2023-05-12T15:47:40.521Z,20.00
2023-05-12T15:50:10.903Z,20.20
2023-05-12T15:52:43.016Z,20.00
2023-05-12T15:58:29.367Z,19.80
2023-05-12T16:01:13.499Z,19.80
2023-05-12T16:03:47.371Z,19.90
2023-05-12T16:06:21.873Z,19.80
2023-05-12T16:08:59.528Z,19.80
2023-05-12T16:11:28.450Z,19.50
2023-05-12T16:13:57.289Z,18.50
2023-05-12T16:16:25.506Z,19.50
2023-05-12T16:18:53.708Z,19.20
2023-05-12T16:21:22.073Z,19.10
2023-05-12T16:23:51.582Z,19.20
2023-05-12T16:26:20.234Z,19.00
2023-05-12T16:28:48.325Z,19.40
2023-05-12T16:31:18.860Z,19.00
2023-05-12T16:33:47.025Z,19.00
2023-05-12T16:36:16.146Z,18.80
2023-05-12T16:38:45.929Z,19.00
2023-05-12T16:41:15.415Z,18.90
2023-05-12T16:43:43.564Z,19.30
2023-05-12T16:46:11.759Z,19.50
2023-05-12T16:48:39.952Z,19.10
2023-05-12T16:51:08.854Z,19.00
2023-05-12T16:53:37.155Z,19.10
2023-05-12T16:56:05.397Z,18.80
2023-05-12T16:58:35.119Z,18.90
2023-05-12T17:01:03.380Z,18.50
2023-05-12T17:03:31.797Z,18.80
2023-05-12T17:05:59.942Z,19.10
2023-05-12T17:08:28.048Z,18.50
2023-05-12T17:10:56.052Z,18.70
2023-05-12T17:13:24.191Z,18.70
2023-05-12T17:15:53.823Z,18.90
2023-05-12T17:18:21.956Z,18.80
2023-05-12T17:20:50.033Z,18.90
2023-05-12T17:23:18.176Z,18.80
2023-05-12T17:25:46.338Z,18.80
2023-05-12T17:28:14.419Z,19.20
2023-05-12T17:30:43.201Z,18.50
2023-05-12T17:33:13.272Z,18.50
2023-05-12T17:35:41.785Z,18.70
2023-05-12T17:38:10.011Z,18.70
2023-05-12T17:40:38.083Z,18.70
2023-05-12T17:43:06.690Z,18.50
2023-05-12T17:45:35.084Z,18.30
2023-05-12T17:48:03.276Z,18.30
2023-05-12T17:50:33.132Z,18.60
2023-05-12T17:53:01.215Z,18.60
2023-05-12T17:55:29.456Z,18.70
2023-05-12T17:57:58.028Z,18.40
2023-05-12T18:00:26.318Z,18.70
2023-05-12T18:02:54.597Z,18.40
2023-05-12T18:05:23.298Z,18.70
2023-05-12T18:07:52.905Z,18.70
2023-05-12T18:10:20.935Z,18.70
2023-05-12T18:12:48.970Z,18.80
2023-05-12T18:15:22.474Z,18.40
2023-05-12T18:17:50.584Z,18.70
2023-05-12T18:20:19.099Z,18.50
2023-05-12T18:22:47.183Z,18.50
2023-05-12T18:25:16.588Z,18.80
2023-05-12T18:27:44.690Z,18.40
2023-05-12T18:30:13.868Z,18.50
2023-05-12T18:32:42.470Z,18.50
2023-05-12T18:35:10.924Z,18.30
2023-05-12T18:37:39.269Z,18.50
2023-05-12T18:40:08.814Z,18.60
2023-05-12T18:42:38.485Z,18.70
2023-05-12T18:45:08.120Z,18.30
2023-05-12T18:47:36.439Z,18.40
2023-05-12T18:50:05.470Z,18.20
2023-05-12T18:52:33.581Z,18.40
2023-05-12T18:55:01.764Z,18.30
2023-05-12T18:57:29.867Z,18.40
2023-05-12T18:59:59.323Z,18.00
2023-05-12T19:02:27.659Z,17.90
2023-05-12T19:04:55.908Z,18.10
2023-05-12T19:07:24.384Z,18.20
2023-05-12T19:09:52.508Z,18.00
2023-05-12T19:12:20.651Z,18.30
2023-05-12T19:14:48.727Z,18.40
2023-05-12T19:17:18.456Z,18.30
2023-05-12T19:19:46.688Z,18.10
2023-05-12T19:22:14.772Z,17.90
2023-05-12T19:24:42.882Z,18.10
2023-05-12T19:27:11.280Z,18.20
2023-05-12T19:29:39.317Z,18.00
2023-05-12T19:32:08.095Z,18.10
2023-05-12T19:34:37.604Z,17.90
2023-05-12T19:37:06.337Z,18.00
2023-05-12T19:39:34.356Z,17.90
2023-05-12T19:42:02.393Z,17.70
2023-05-12T19:44:30.476Z,17.80
2023-05-12T19:47:04.730Z,17.70
2023-05-12T19:49:34.342Z,17.80
2023-05-12T19:52:03.780Z,17.40
2023-05-12T19:54:31.920Z,17.80
2023-05-12T19:56:59.954Z,17.80
2023-05-12T19:59:28.098Z,17.70
2023-05-12T20:01:56.513Z,17.50
2023-05-12T20:04:25.528Z,17.30
2023-05-12T20:06:54.523Z,17.40
2023-05-12T20:09:24.897Z,17.70
2023-05-12T20:11:55.040Z,17.70
2023-05-12T20:14:23.358Z,17.70
2023-05-12T20:16:51.416Z,17.80
2023-05-12T20:19:20.720Z,17.50
2023-05-12T20:21:48.847Z,17.60
2023-05-12T20:24:16.978Z,17.40
2023-05-12T20:26:46.452Z,17.60
2023-05-12T20:29:20.784Z,17.60
2023-05-12T20:31:49.232Z,17.70
2023-05-12T20:34:17.637Z,17.70
2023-05-12T20:36:45.818Z,17.50
2023-05-12T20:39:14.381Z,17.40
2023-05-12T20:41:43.455Z,17.30
2023-05-12T20:44:12.941Z,17.30
2023-05-12T20:46:41.145Z,17.20
2023-05-12T20:49:09.309Z,17.50
2023-05-12T20:51:37.369Z,17.10
2023-05-12T20:54:06.041Z,16.90
2023-05-12T20:56:34.150Z,17.10
2023-05-12T20:59:02.440Z,17.30
2023-05-12T21:01:32.317Z,17.30
2023-05-12T21:04:00.533Z,17.20
2023-05-12T21:06:28.579Z,17.60
2023-05-12T21:08:56.663Z,17.50
2023-05-12T21:11:24.720Z,17.70
2023-05-12T21:13:52.790Z,17.60
2023-05-12T21:16:21.102Z,17.00
2023-05-12T21:18:50.585Z,17.30
2023-05-12T21:21:18.696Z,17.50
2023-05-12T21:23:46.820Z,17.50
2023-05-12T21:26:14.835Z,17.50
2023-05-12T21:28:42.887Z,17.40
2023-05-12T21:31:10.933Z,17.60
2023-05-12T21:33:39.012Z,17.80
2023-05-12T21:36:09.282Z,17.80
2023-05-12T21:38:37.368Z,17.70
2023-05-12T21:41:05.628Z,17.50
2023-05-12T21:43:33.715Z,17.80
2023-05-12T21:46:04.358Z,18.00
2023-05-12T21:48:33.381Z,18.10
2023-05-12T21:51:01.713Z,17.80
2023-05-12T21:53:31.363Z,17.50
2023-05-12T21:55:59.429Z,17.80
2023-05-12T21:58:28.232Z,17.80
2023-05-12T22:00:56.412Z,17.80
2023-05-12T22:03:25.407Z,18.00
2023-05-12T22:05:53.625Z,18.00
2023-05-12T22:08:21.948Z,17.80
2023-05-12T22:10:51.983Z,17.80
2023-05-12T22:13:20.233Z,17.60
2023-05-12T22:15:48.436Z,17.70
2023-05-12T22:18:16.548Z,17.80
2023-05-12T22:20:44.583Z,17.70
2023-05-12T22:23:12.727Z,17.60
2023-05-12T22:25:40.898Z,17.70
2023-05-12T22:28:11.137Z,17.30
2023-05-12T22:30:39.166Z,17.20
2023-05-12T22:33:07.323Z,17.30
2023-05-12T22:35:35.419Z,17.10
2023-05-12T22:38:03.562Z,17.00
2023-05-12T22:40:32.866Z,16.80
2023-05-12T22:43:01.027Z,16.90
2023-05-12T22:45:30.702Z,16.80
2023-05-12T22:47:58.832Z,17.00
2023-05-12T22:50:26.887Z,17.10
2023-05-12T22:52:57.340Z,16.90
2023-05-12T22:55:26.310Z,17.20
2023-05-12T22:57:54.344Z,17.20
2023-05-12T23:00:22.762Z,17.30
2023-05-12T23:02:52.445Z,17.30
2023-05-12T23:05:20.613Z,17.30
2023-05-12T23:07:48.657Z,17.30
2023-05-12T23:10:16.810Z,16.90
2023-05-12T23:12:44.868Z,16.80
2023-05-12T23:15:13.777Z,17.10
2023-05-12T23:17:41.902Z,17.00
2023-05-12T23:20:12.462Z,17.00
2023-05-12T23:22:40.574Z,17.10
2023-05-12T23:25:09.967Z,16.80
2023-05-12T23:27:38.046Z,16.80
2023-05-12T23:30:07.357Z,16.80
2023-05-12T23:32:35.640Z,16.70
2023-05-12T23:35:04.128Z,16.60
2023-05-12T23:37:33.563Z,16.20
2023-05-12T23:40:01.910Z,16.20
2023-05-12T23:42:29.978Z,16.60
2023-05-12T23:44:58.012Z,16.80
2023-05-12T23:47:26.172Z,16.80
2023-05-12T23:49:54.227Z,16.80
2023-05-12T23:52:22.305Z,16.80
2023-05-12T23:54:51.755Z,16.90
2023-05-12T23:57:20.104Z,16.80
2023-05-12T23:59:48.323Z,16.80
